sensor_id;sensor_type;location;lat;lon;timestamp;P1;durP1;ratioP1;P2;durP2;ratioP2
48550;SDS011;34397;51.176;6.738;2022-07-22T00:01:56;10.23;;;4.90;;
48550;SDS011;34397;51.176;6.738;2022-07-22T00:04:28;8.68;;;4.90;;
48550;SDS011;34397;51.176;6.738;2022-07-22T00:07:00;11.73;;;4.50;;
48550;SDS011;34397;51.176;6.738;2022-07-22T00:09:31;16.60;;;7.93;;
48550;SDS011;34397;51.176;6.738;2022-07-22T00:12:03;10.45;;;5.57;;
48550;SDS011;34397;51.176;6.738;2022-07-22T00:14:37;9.27;;;4.93;;
48550;SDS011;34397;51.176;6.738;2022-07-22T00:17:09;10.82;;;4.70;;
48550;SDS011;34397;51.176;6.738;2022-07-22T00:19:41;16.23;;;6.47;;
48550;SDS011;34397;51.176;6.738;2022-07-22T00:22:13;9.63;;;5.25;;
48550;SDS011;34397;51.176;6.738;2022-07-22T00:24:45;10.57;;;5.45;;
48550;SDS011;34397;51.176;6.738;2022-07-22T00:27:17;12.48;;;5.65;;
48550;SDS011;34397;51.176;6.738;2022-07-22T00:29:50;8.93;;;4.82;;
48550;SDS011;34397;51.176;6.738;2022-07-22T00:32:22;12.30;;;5.20;;
48550;SDS011;34397;51.176;6.738;2022-07-22T00:34:53;8.85;;;5.03;;
48550;SDS011;34397;51.176;6.738;2022-07-22T00:37:25;10.48;;;4.70;;
48550;SDS011;34397;51.176;6.738;2022-07-22T00:39:57;7.70;;;4.70;;
48550;SDS011;34397;51.176;6.738;2022-07-22T00:42:29;8.98;;;5.10;;
48550;SDS011;34397;51.176;6.738;2022-07-22T00:45:03;16.13;;;7.65;;
48550;SDS011;34397;51.176;6.738;2022-07-22T00:47:36;15.45;;;6.57;;
48550;SDS011;34397;51.176;6.738;2022-07-22T00:50:08;9.23;;;5.07;;
48550;SDS011;34397;51.176;6.738;2022-07-22T00:52:41;11.00;;;6.00;;
48550;SDS011;34397;51.176;6.738;2022-07-22T00:55:13;11.05;;;5.65;;
48550;SDS011;34397;51.176;6.738;2022-07-22T00:57:45;9.88;;;5.00;;
48550;SDS011;34397;51.176;6.738;2022-07-22T01:00:20;12.10;;;5.23;;
48550;SDS011;34397;51.176;6.738;2022-07-22T01:02:53;22.58;;;9.27;;
48550;SDS011;34397;51.176;6.738;2022-07-22T01:05:25;9.75;;;5.15;;
48550;SDS011;34397;51.176;6.738;2022-07-22T01:07:57;7.68;;;5.15;;
48550;SDS011;34397;51.176;6.738;2022-07-22T01:10:29;8.15;;;5.00;;
48550;SDS011;34397;51.176;6.738;2022-07-22T01:13:00;10.35;;;4.82;;
48550;SDS011;34397;51.176;6.738;2022-07-22T01:15:34;12.98;;;5.40;;
48550;SDS011;34397;51.176;6.738;2022-07-22T01:18:06;11.00;;;5.57;;
48550;SDS011;34397;51.176;6.738;2022-07-22T01:20:39;9.38;;;4.90;;
48550;SDS011;34397;51.176;6.738;2022-07-22T01:23:12;10.23;;;5.35;;
48550;SDS011;34397;51.176;6.738;2022-07-22T01:25:44;12.50;;;5.40;;
48550;SDS011;34397;51.176;6.738;2022-07-22T01:28:16;9.60;;;5.43;;
48550;SDS011;34397;51.176;6.738;2022-07-22T01:30:48;9.80;;;5.43;;
48550;SDS011;34397;51.176;6.738;2022-07-22T01:33:20;11.13;;;6.28;;
48550;SDS011;34397;51.176;6.738;2022-07-22T01:35:55;11.10;;;5.90;;
48550;SDS011;34397;51.176;6.738;2022-07-22T01:38:27;12.02;;;5.30;;
48550;SDS011;34397;51.176;6.738;2022-07-22T01:40:59;10.52;;;5.55;;
48550;SDS011;34397;51.176;6.738;2022-07-22T01:43:31;11.55;;;6.03;;
48550;SDS011;34397;51.176;6.738;2022-07-22T01:46:03;10.90;;;5.68;;
48550;SDS011;34397;51.176;6.738;2022-07-22T01:48:35;9.32;;;6.13;;
48550;SDS011;34397;51.176;6.738;2022-07-22T01:51:09;12.82;;;6.60;;
48550;SDS011;34397;51.176;6.738;2022-07-22T01:53:40;11.68;;;6.47;;
48550;SDS011;34397;51.176;6.738;2022-07-22T01:56:12;13.15;;;6.50;;
48550;SDS011;34397;51.176;6.738;2022-07-22T01:58:44;10.45;;;6.18;;
48550;SDS011;34397;51.176;6.738;2022-07-22T02:01:16;9.68;;;6.45;;
48550;SDS011;34397;51.176;6.738;2022-07-22T02:03:48;12.33;;;6.10;;
48550;SDS011;34397;51.176;6.738;2022-07-22T02:06:22;11.27;;;6.30;;
48550;SDS011;34397;51.176;6.738;2022-07-22T02:08:54;9.95;;;5.72;;
48550;SDS011;34397;51.176;6.738;2022-07-22T02:11:26;10.48;;;5.40;;
48550;SDS011;34397;51.176;6.738;2022-07-22T02:13:57;9.63;;;5.15;;
48550;SDS011;34397;51.176;6.738;2022-07-22T02:16:29;10.95;;;5.68;;
48550;SDS011;34397;51.176;6.738;2022-07-22T02:19:01;9.70;;;5.40;;
48550;SDS011;34397;51.176;6.738;2022-07-22T02:21:34;10.55;;;5.70;;
48550;SDS011;34397;51.176;6.738;2022-07-22T02:24:07;9.80;;;5.43;;
48550;SDS011;34397;51.176;6.738;2022-07-22T02:26:39;12.93;;;5.70;;
48550;SDS011;34397;51.176;6.738;2022-07-22T02:29:11;9.73;;;5.78;;
48550;SDS011;34397;51.176;6.738;2022-07-22T02:31:43;11.10;;;5.95;;
48550;SDS011;34397;51.176;6.738;2022-07-22T02:34:15;11.52;;;5.22;;
48550;SDS011;34397;51.176;6.738;2022-07-22T02:36:48;9.88;;;4.72;;
48550;SDS011;34397;51.176;6.738;2022-07-22T02:39:20;9.60;;;5.03;;
48550;SDS011;34397;51.176;6.738;2022-07-22T02:41:52;9.18;;;5.10;;
48550;SDS011;34397;51.176;6.738;2022-07-22T02:44:24;8.80;;;4.85;;
48550;SDS011;34397;51.176;6.738;2022-07-22T02:46:55;12.32;;;5.85;;
48550;SDS011;34397;51.176;6.738;2022-07-22T02:49:27;7.85;;;4.13;;
48550;SDS011;34397;51.176;6.738;2022-07-22T02:52:01;7.60;;;4.32;;
48550;SDS011;34397;51.176;6.738;2022-07-22T02:54:32;8.13;;;4.20;;
48550;SDS011;34397;51.176;6.738;2022-07-22T02:57:04;7.22;;;3.28;;
48550;SDS011;34397;51.176;6.738;2022-07-22T02:59:36;9.32;;;4.03;;
48550;SDS011;34397;51.176;6.738;2022-07-22T03:02:08;9.20;;;4.40;;
48550;SDS011;34397;51.176;6.738;2022-07-22T03:04:40;10.48;;;4.45;;
48550;SDS011;34397;51.176;6.738;2022-07-22T03:07:13;7.45;;;3.92;;
48550;SDS011;34397;51.176;6.738;2022-07-22T03:09:45;7.63;;;3.95;;
48550;SDS011;34397;51.176;6.738;2022-07-22T03:12:17;9.83;;;4.20;;
48550;SDS011;34397;51.176;6.738;2022-07-22T03:14:49;9.75;;;4.38;;
48550;SDS011;34397;51.176;6.738;2022-07-22T03:17:21;10.60;;;4.25;;
48550;SDS011;34397;51.176;6.738;2022-07-22T03:19:53;10.75;;;5.15;;
48550;SDS011;34397;51.176;6.738;2022-07-22T03:22:26;9.65;;;4.90;;
48550;SDS011;34397;51.176;6.738;2022-07-22T03:24:58;11.25;;;6.20;;
48550;SDS011;34397;51.176;6.738;2022-07-22T03:27:29;11.20;;;6.10;;
48550;SDS011;34397;51.176;6.738;2022-07-22T03:30:01;10.73;;;6.68;;
48550;SDS011;34397;51.176;6.738;2022-07-22T03:35:06;12.95;;;8.98;;
48550;SDS011;34397;51.176;6.738;2022-07-22T03:37:39;10.77;;;6.45;;
48550;SDS011;34397;51.176;6.738;2022-07-22T03:40:11;12.07;;;7.30;;
48550;SDS011;34397;51.176;6.738;2022-07-22T03:42:43;14.57;;;7.90;;
48550;SDS011;34397;51.176;6.738;2022-07-22T03:45:15;13.93;;;8.63;;
48550;SDS011;34397;51.176;6.738;2022-07-22T03:47:47;15.43;;;8.70;;
48550;SDS011;34397;51.176;6.738;2022-07-22T03:50:19;14.23;;;7.00;;
48550;SDS011;34397;51.176;6.738;2022-07-22T03:52:52;10.03;;;6.30;;
48550;SDS011;34397;51.176;6.738;2022-07-22T03:55:24;12.75;;;5.60;;
48550;SDS011;34397;51.176;6.738;2022-07-22T03:57:56;9.30;;;4.07;;
48550;SDS011;34397;51.176;6.738;2022-07-22T04:00:28;9.05;;;3.88;;
48550;SDS011;34397;51.176;6.738;2022-07-22T04:03:00;6.70;;;3.28;;
48550;SDS011;34397;51.176;6.738;2022-07-22T04:05:32;8.23;;;3.28;;
48550;SDS011;34397;51.176;6.738;2022-07-22T04:08:05;7.30;;;3.08;;
48550;SDS011;34397;51.176;6.738;2022-07-22T04:10:37;6.45;;;2.97;;
48550;SDS011;34397;51.176;6.738;2022-07-22T04:13:09;8.03;;;3.33;;
48550;SDS011;34397;51.176;6.738;2022-07-22T04:15:41;6.22;;;3.13;;
48550;SDS011;34397;51.176;6.738;2022-07-22T04:18:13;10.32;;;3.83;;
48550;SDS011;34397;51.176;6.738;2022-07-22T04:20:47;6.25;;;3.33;;
48550;SDS011;34397;51.176;6.738;2022-07-22T04:23:20;8.70;;;3.50;;
48550;SDS011;34397;51.176;6.738;2022-07-22T04:25:53;5.18;;;3.10;;
48550;SDS011;34397;51.176;6.738;2022-07-22T04:28:24;9.15;;;3.67;;
48550;SDS011;34397;51.176;6.738;2022-07-22T04:30:56;12.43;;;3.17;;
48550;SDS011;34397;51.176;6.738;2022-07-22T04:33:28;11.00;;;4.28;;
48550;SDS011;34397;51.176;6.738;2022-07-22T04:36:00;8.88;;;3.92;;
48550;SDS011;34397;51.176;6.738;2022-07-22T04:38:33;9.70;;;4.10;;
48550;SDS011;34397;51.176;6.738;2022-07-22T04:41:05;8.48;;;3.95;;
48550;SDS011;34397;51.176;6.738;2022-07-22T04:43:37;8.55;;;4.10;;
48550;SDS011;34397;51.176;6.738;2022-07-22T04:46:09;10.07;;;4.72;;
48550;SDS011;34397;51.176;6.738;2022-07-22T04:48:41;8.25;;;4.60;;
48550;SDS011;34397;51.176;6.738;2022-07-22T04:51:13;9.77;;;4.57;;
48550;SDS011;34397;51.176;6.738;2022-07-22T04:53:46;10.48;;;4.72;;
48550;SDS011;34397;51.176;6.738;2022-07-22T04:56:18;15.93;;;5.20;;
48550;SDS011;34397;51.176;6.738;2022-07-22T04:58:50;9.35;;;5.00;;
48550;SDS011;34397;51.176;6.738;2022-07-22T05:01:22;9.38;;;5.28;;
48550;SDS011;34397;51.176;6.738;2022-07-22T05:03:55;11.65;;;5.55;;
48550;SDS011;34397;51.176;6.738;2022-07-22T05:06:27;8.82;;;5.28;;
48550;SDS011;34397;51.176;6.738;2022-07-22T05:09:00;10.68;;;5.15;;
48550;SDS011;34397;51.176;6.738;2022-07-22T05:11:32;10.05;;;6.03;;
48550;SDS011;34397;51.176;6.738;2022-07-22T05:14:04;9.25;;;5.93;;
48550;SDS011;34397;51.176;6.738;2022-07-22T05:16:35;11.10;;;5.78;;
48550;SDS011;34397;51.176;6.738;2022-07-22T05:19:08;10.65;;;6.90;;
48550;SDS011;34397;51.176;6.738;2022-07-22T05:21:40;10.68;;;6.65;;
48550;SDS011;34397;51.176;6.738;2022-07-22T05:24:13;13.73;;;7.47;;
48550;SDS011;34397;51.176;6.738;2022-07-22T05:26:45;11.25;;;6.88;;
48550;SDS011;34397;51.176;6.738;2022-07-22T05:29:17;11.65;;;7.15;;
48550;SDS011;34397;51.176;6.738;2022-07-22T05:31:49;13.10;;;7.53;;
48550;SDS011;34397;51.176;6.738;2022-07-22T05:34:21;12.07;;;7.10;;
48550;SDS011;34397;51.176;6.738;2022-07-22T05:36:53;11.75;;;7.40;;
48550;SDS011;34397;51.176;6.738;2022-07-22T05:39:26;13.00;;;7.28;;
48550;SDS011;34397;51.176;6.738;2022-07-22T05:41:58;11.10;;;6.85;;
48550;SDS011;34397;51.176;6.738;2022-07-22T05:44:30;17.40;;;6.47;;
48550;SDS011;34397;51.176;6.738;2022-07-22T05:47:02;9.23;;;5.70;;
48550;SDS011;34397;51.176;6.738;2022-07-22T05:49:34;10.35;;;6.18;;
48550;SDS011;34397;51.176;6.738;2022-07-22T05:52:05;11.75;;;5.90;;
48550;SDS011;34397;51.176;6.738;2022-07-22T05:54:39;12.10;;;6.32;;
48550;SDS011;34397;51.176;6.738;2022-07-22T05:57:10;8.25;;;5.20;;
48550;SDS011;34397;51.176;6.738;2022-07-22T05:59:42;11.75;;;5.90;;
48550;SDS011;34397;51.176;6.738;2022-07-22T06:02:14;18.65;;;8.88;;
48550;SDS011;34397;51.176;6.738;2022-07-22T06:04:46;9.88;;;5.28;;
48550;SDS011;34397;51.176;6.738;2022-07-22T06:07:18;8.57;;;4.72;;
48550;SDS011;34397;51.176;6.738;2022-07-22T06:09:51;7.68;;;4.00;;
48550;SDS011;34397;51.176;6.738;2022-07-22T06:12:24;12.48;;;4.65;;
48550;SDS011;34397;51.176;6.738;2022-07-22T06:14:56;10.98;;;4.70;;
48550;SDS011;34397;51.176;6.738;2022-07-22T06:17:27;11.18;;;4.88;;
48550;SDS011;34397;51.176;6.738;2022-07-22T06:19:59;9.20;;;5.15;;
48550;SDS011;34397;51.176;6.738;2022-07-22T06:22:31;8.00;;;4.13;;
48550;SDS011;34397;51.176;6.738;2022-07-22T06:25:05;8.38;;;3.70;;
48550;SDS011;34397;51.176;6.738;2022-07-22T06:27:38;6.35;;;2.67;;
48550;SDS011;34397;51.176;6.738;2022-07-22T06:30:10;6.28;;;2.70;;
48550;SDS011;34397;51.176;6.738;2022-07-22T06:32:43;9.00;;;2.70;;
48550;SDS011;34397;51.176;6.738;2022-07-22T06:35:16;6.03;;;2.83;;
48550;SDS011;34397;51.176;6.738;2022-07-22T06:37:48;5.97;;;2.25;;
48550;SDS011;34397;51.176;6.738;2022-07-22T06:40:21;10.95;;;2.83;;
48550;SDS011;34397;51.176;6.738;2022-07-22T06:42:53;6.63;;;2.70;;
48550;SDS011;34397;51.176;6.738;2022-07-22T06:45:26;4.65;;;2.63;;
48550;SDS011;34397;51.176;6.738;2022-07-22T06:47:58;10.95;;;2.95;;
48550;SDS011;34397;51.176;6.738;2022-07-22T06:50:30;7.55;;;2.65;;
48550;SDS011;34397;51.176;6.738;2022-07-22T06:53:02;5.72;;;2.40;;
48550;SDS011;34397;51.176;6.738;2022-07-22T06:55:35;6.68;;;2.60;;
48550;SDS011;34397;51.176;6.738;2022-07-22T06:58:07;8.02;;;2.60;;
48550;SDS011;34397;51.176;6.738;2022-07-22T07:00:39;5.80;;;2.50;;
48550;SDS011;34397;51.176;6.738;2022-07-22T07:03:11;7.70;;;3.05;;
48550;SDS011;34397;51.176;6.738;2022-07-22T07:05:44;4.63;;;2.38;;
48550;SDS011;34397;51.176;6.738;2022-07-22T07:08:16;7.38;;;3.13;;
48550;SDS011;34397;51.176;6.738;2022-07-22T07:10:49;10.00;;;2.72;;
48550;SDS011;34397;51.176;6.738;2022-07-22T07:13:20;6.85;;;2.90;;
48550;SDS011;34397;51.176;6.738;2022-07-22T07:15:52;7.95;;;2.92;;
48550;SDS011;34397;51.176;6.738;2022-07-22T07:18:24;7.93;;;3.13;;
48550;SDS011;34397;51.176;6.738;2022-07-22T07:20:56;7.03;;;3.10;;
48550;SDS011;34397;51.176;6.738;2022-07-22T07:23:28;7.07;;;3.08;;
48550;SDS011;34397;51.176;6.738;2022-07-22T07:26:01;5.03;;;2.67;;
48550;SDS011;34397;51.176;6.738;2022-07-22T07:28:33;5.15;;;2.70;;
48550;SDS011;34397;51.176;6.738;2022-07-22T07:31:05;6.43;;;3.03;;
48550;SDS011;34397;51.176;6.738;2022-07-22T07:33:37;9.35;;;3.08;;
48550;SDS011;34397;51.176;6.738;2022-07-22T07:36:10;6.47;;;3.00;;
48550;SDS011;34397;51.176;6.738;2022-07-22T07:38:42;7.22;;;2.67;;
48550;SDS011;34397;51.176;6.738;2022-07-22T07:41:15;11.07;;;3.15;;
48550;SDS011;34397;51.176;6.738;2022-07-22T07:43:48;6.60;;;3.35;;
48550;SDS011;34397;51.176;6.738;2022-07-22T07:46:20;7.65;;;3.50;;
48550;SDS011;34397;51.176;6.738;2022-07-22T07:48:52;7.18;;;3.35;;
48550;SDS011;34397;51.176;6.738;2022-07-22T07:51:23;7.78;;;3.42;;
48550;SDS011;34397;51.176;6.738;2022-07-22T07:53:55;8.32;;;3.22;;
48550;SDS011;34397;51.176;6.738;2022-07-22T07:56:29;7.60;;;3.80;;
48550;SDS011;34397;51.176;6.738;2022-07-22T07:59:00;8.60;;;4.30;;
48550;SDS011;34397;51.176;6.738;2022-07-22T08:01:32;9.70;;;4.68;;
48550;SDS011;34397;51.176;6.738;2022-07-22T08:04:04;10.82;;;4.47;;
48550;SDS011;34397;51.176;6.738;2022-07-22T08:06:36;10.10;;;4.73;;
48550;SDS011;34397;51.176;6.738;2022-07-22T08:09:08;8.52;;;4.15;;
48550;SDS011;34397;51.176;6.738;2022-07-22T08:11:42;8.63;;;4.53;;
48550;SDS011;34397;51.176;6.738;2022-07-22T08:14:14;10.15;;;4.22;;
48550;SDS011;34397;51.176;6.738;2022-07-22T08:16:45;9.10;;;4.90;;
48550;SDS011;34397;51.176;6.738;2022-07-22T08:19:18;9.63;;;4.70;;
48550;SDS011;34397;51.176;6.738;2022-07-22T08:21:50;8.13;;;5.30;;
48550;SDS011;34397;51.176;6.738;2022-07-22T08:24:21;8.02;;;5.00;;
48550;SDS011;34397;51.176;6.738;2022-07-22T08:26:55;9.30;;;5.40;;
48550;SDS011;34397;51.176;6.738;2022-07-22T08:29:27;11.35;;;5.43;;
48550;SDS011;34397;51.176;6.738;2022-07-22T08:31:59;9.88;;;5.72;;
48550;SDS011;34397;51.176;6.738;2022-07-22T08:34:30;10.30;;;5.28;;
48550;SDS011;34397;51.176;6.738;2022-07-22T08:37:02;11.52;;;6.07;;
48550;SDS011;34397;51.176;6.738;2022-07-22T08:39:34;10.73;;;5.63;;
48550;SDS011;34397;51.176;6.738;2022-07-22T08:42:08;14.35;;;5.78;;
48550;SDS011;34397;51.176;6.738;2022-07-22T08:44:40;11.48;;;5.72;;
48550;SDS011;34397;51.176;6.738;2022-07-22T08:47:12;17.05;;;6.40;;
48550;SDS011;34397;51.176;6.738;2022-07-22T08:49:44;8.52;;;5.55;;
48550;SDS011;34397;51.176;6.738;2022-07-22T08:52:16;11.57;;;5.88;;
48550;SDS011;34397;51.176;6.738;2022-07-22T08:54:48;12.80;;;6.57;;
48550;SDS011;34397;51.176;6.738;2022-07-22T08:57:21;12.45;;;6.68;;
48550;SDS011;34397;51.176;6.738;2022-07-22T08:59:54;11.70;;;6.57;;
48550;SDS011;34397;51.176;6.738;2022-07-22T09:02:28;13.10;;;6.93;;
48550;SDS011;34397;51.176;6.738;2022-07-22T09:05:08;14.57;;;7.40;;
48550;SDS011;34397;51.176;6.738;2022-07-22T09:07:44;12.90;;;6.60;;
48550;SDS011;34397;51.176;6.738;2022-07-22T09:12:51;11.13;;;6.68;;
48550;SDS011;34397;51.176;6.738;2022-07-22T09:15:26;12.55;;;6.78;;
48550;SDS011;34397;51.176;6.738;2022-07-22T09:18:00;13.25;;;7.65;;
48550;SDS011;34397;51.176;6.738;2022-07-22T09:20:32;11.90;;;7.60;;
48550;SDS011;34397;51.176;6.738;2022-07-22T09:23:09;11.57;;;7.70;;
48550;SDS011;34397;51.176;6.738;2022-07-22T09:25:42;13.30;;;7.82;;
48550;SDS011;34397;51.176;6.738;2022-07-22T09:28:17;11.20;;;7.27;;
48550;SDS011;34397;51.176;6.738;2022-07-22T09:30:52;12.38;;;7.22;;
48550;SDS011;34397;51.176;6.738;2022-07-22T09:33:25;12.07;;;7.25;;
48550;SDS011;34397;51.176;6.738;2022-07-22T09:36:00;10.03;;;6.80;;
48550;SDS011;34397;51.176;6.738;2022-07-22T09:38:34;13.52;;;7.93;;
48550;SDS011;34397;51.176;6.738;2022-07-22T09:41:06;11.48;;;7.55;;
48550;SDS011;34397;51.176;6.738;2022-07-22T09:43:39;11.95;;;7.15;;
48550;SDS011;34397;51.176;6.738;2022-07-22T09:46:11;12.30;;;7.50;;
48550;SDS011;34397;51.176;6.738;2022-07-22T09:48:43;12.68;;;7.82;;
48550;SDS011;34397;51.176;6.738;2022-07-22T09:51:15;12.68;;;7.10;;
48550;SDS011;34397;51.176;6.738;2022-07-22T09:53:48;14.02;;;7.18;;
48550;SDS011;34397;51.176;6.738;2022-07-22T09:56:20;11.27;;;6.43;;
48550;SDS011;34397;51.176;6.738;2022-07-22T09:58:56;15.40;;;7.38;;
48550;SDS011;34397;51.176;6.738;2022-07-22T10:01:28;13.38;;;6.88;;
48550;SDS011;34397;51.176;6.738;2022-07-22T10:04:00;13.18;;;8.15;;
48550;SDS011;34397;51.176;6.738;2022-07-22T10:06:34;13.82;;;7.13;;
48550;SDS011;34397;51.176;6.738;2022-07-22T10:09:09;15.18;;;7.88;;
48550;SDS011;34397;51.176;6.738;2022-07-22T10:11:42;13.20;;;7.50;;
48550;SDS011;34397;51.176;6.738;2022-07-22T10:14:18;11.30;;;7.57;;
48550;SDS011;34397;51.176;6.738;2022-07-22T10:16:52;13.38;;;7.70;;
48550;SDS011;34397;51.176;6.738;2022-07-22T10:19:24;12.38;;;7.57;;
48550;SDS011;34397;51.176;6.738;2022-07-22T10:21:57;13.57;;;7.60;;
48550;SDS011;34397;51.176;6.738;2022-07-22T10:24:28;10.75;;;7.25;;
48550;SDS011;34397;51.176;6.738;2022-07-22T10:27:00;13.57;;;7.80;;
48550;SDS011;34397;51.176;6.738;2022-07-22T10:29:39;12.73;;;7.17;;
48550;SDS011;34397;51.176;6.738;2022-07-22T10:32:23;11.30;;;7.13;;
48550;SDS011;34397;51.176;6.738;2022-07-22T10:35:19;11.73;;;7.97;;
48550;SDS011;34397;51.176;6.738;2022-07-22T10:37:56;12.00;;;7.88;;
48550;SDS011;34397;51.176;6.738;2022-07-22T10:40:45;12.63;;;8.30;;
48550;SDS011;34397;51.176;6.738;2022-07-22T10:43:24;11.93;;;8.40;;
48550;SDS011;34397;51.176;6.738;2022-07-22T10:45:58;13.32;;;8.30;;
48550;SDS011;34397;51.176;6.738;2022-07-22T10:48:45;11.05;;;7.82;;
48550;SDS011;34397;51.176;6.738;2022-07-22T10:51:18;14.85;;;8.57;;
48550;SDS011;34397;51.176;6.738;2022-07-22T10:53:52;13.27;;;8.38;;
48550;SDS011;34397;51.176;6.738;2022-07-22T10:56:27;12.95;;;8.82;;
48550;SDS011;34397;51.176;6.738;2022-07-22T10:59:08;16.63;;;8.80;;
48550;SDS011;34397;51.176;6.738;2022-07-22T11:01:43;11.93;;;8.60;;
48550;SDS011;34397;51.176;6.738;2022-07-22T11:04:17;13.27;;;8.80;;
48550;SDS011;34397;51.176;6.738;2022-07-22T11:06:52;14.45;;;8.25;;
48550;SDS011;34397;51.176;6.738;2022-07-22T11:09:30;14.35;;;8.35;;
48550;SDS011;34397;51.176;6.738;2022-07-22T11:12:06;13.55;;;9.05;;
48550;SDS011;34397;51.176;6.738;2022-07-22T11:14:43;13.00;;;9.07;;
48550;SDS011;34397;51.176;6.738;2022-07-22T11:17:17;13.48;;;9.35;;
48550;SDS011;34397;51.176;6.738;2022-07-22T11:19:53;13.75;;;9.13;;
48550;SDS011;34397;51.176;6.738;2022-07-22T11:22:25;13.48;;;8.60;;
48550;SDS011;34397;51.176;6.738;2022-07-22T11:24:57;14.13;;;9.73;;
48550;SDS011;34397;51.176;6.738;2022-07-22T11:27:32;14.52;;;9.52;;
48550;SDS011;34397;51.176;6.738;2022-07-22T11:30:04;14.18;;;10.00;;
48550;SDS011;34397;51.176;6.738;2022-07-22T11:32:42;13.85;;;10.18;;
48550;SDS011;34397;51.176;6.738;2022-07-22T11:35:14;12.90;;;9.30;;
48550;SDS011;34397;51.176;6.738;2022-07-22T11:37:54;14.03;;;9.47;;
48550;SDS011;34397;51.176;6.738;2022-07-22T11:40:31;13.93;;;9.13;;
48550;SDS011;34397;51.176;6.738;2022-07-22T11:43:03;22.48;;;13.00;;
48550;SDS011;34397;51.176;6.738;2022-07-22T11:45:35;14.40;;;9.48;;
48550;SDS011;34397;51.176;6.738;2022-07-22T11:48:28;13.75;;;9.30;;
48550;SDS011;34397;51.176;6.738;2022-07-22T11:51:00;13.48;;;9.38;;
48550;SDS011;34397;51.176;6.738;2022-07-22T11:56:05;12.00;;;8.18;;
48550;SDS011;34397;51.176;6.738;2022-07-22T11:58:40;12.07;;;8.65;;
48550;SDS011;34397;51.176;6.738;2022-07-22T12:01:15;99.90;;;17.63;;
48550;SDS011;34397;51.176;6.738;2022-07-22T12:03:50;12.18;;;7.97;;
48550;SDS011;34397;51.176;6.738;2022-07-22T12:06:24;11.95;;;7.97;;
48550;SDS011;34397;51.176;6.738;2022-07-22T12:09:02;11.68;;;7.90;;
48550;SDS011;34397;51.176;6.738;2022-07-22T12:11:37;12.52;;;8.73;;
48550;SDS011;34397;51.176;6.738;2022-07-22T12:14:13;11.77;;;7.97;;
48550;SDS011;34397;51.176;6.738;2022-07-22T12:16:53;11.30;;;8.13;;
48550;SDS011;34397;51.176;6.738;2022-07-22T12:19:28;11.30;;;8.55;;
48550;SDS011;34397;51.176;6.738;2022-07-22T12:22:04;12.15;;;8.90;;
48550;SDS011;34397;51.176;6.738;2022-07-22T12:24:38;12.02;;;8.63;;
48550;SDS011;34397;51.176;6.738;2022-07-22T12:27:13;12.15;;;8.30;;
48550;SDS011;34397;51.176;6.738;2022-07-22T12:29:47;13.15;;;9.13;;
48550;SDS011;34397;51.176;6.738;2022-07-22T12:32:24;11.98;;;9.10;;
48550;SDS011;34397;51.176;6.738;2022-07-22T12:35:00;12.63;;;9.73;;
48550;SDS011;34397;51.176;6.738;2022-07-22T12:37:33;12.95;;;9.30;;
48550;SDS011;34397;51.176;6.738;2022-07-22T12:40:17;13.50;;;9.30;;
48550;SDS011;34397;51.176;6.738;2022-07-22T12:42:59;12.13;;;9.65;;
48550;SDS011;34397;51.176;6.738;2022-07-22T12:45:33;13.00;;;9.20;;
48550;SDS011;34397;51.176;6.738;2022-07-22T12:48:07;13.02;;;9.18;;
48550;SDS011;34397;51.176;6.738;2022-07-22T12:50:42;12.43;;;9.13;;
48550;SDS011;34397;51.176;6.738;2022-07-22T12:53:25;12.30;;;9.57;;
48550;SDS011;34397;51.176;6.738;2022-07-22T12:55:59;12.93;;;8.55;;
48550;SDS011;34397;51.176;6.738;2022-07-22T12:58:33;10.65;;;8.30;;
48550;SDS011;34397;51.176;6.738;2022-07-22T13:01:07;10.90;;;8.48;;
48550;SDS011;34397;51.176;6.738;2022-07-22T13:03:39;11.48;;;8.43;;
48550;SDS011;34397;51.176;6.738;2022-07-22T13:06:12;12.25;;;8.27;;
48550;SDS011;34397;51.176;6.738;2022-07-22T13:08:45;10.90;;;7.60;;
48550;SDS011;34397;51.176;6.738;2022-07-22T13:11:17;10.45;;;7.63;;
48550;SDS011;34397;51.176;6.738;2022-07-22T13:13:49;10.02;;;7.07;;
48550;SDS011;34397;51.176;6.738;2022-07-22T13:16:21;10.50;;;7.10;;
48550;SDS011;34397;51.176;6.738;2022-07-22T13:21:26;8.38;;;6.55;;
48550;SDS011;34397;51.176;6.738;2022-07-22T13:23:58;9.57;;;7.07;;
48550;SDS011;34397;51.176;6.738;2022-07-22T13:26:30;9.23;;;6.97;;
48550;SDS011;34397;51.176;6.738;2022-07-22T13:29:02;10.27;;;7.00;;
48550;SDS011;34397;51.176;6.738;2022-07-22T13:31:34;11.50;;;7.30;;
48550;SDS011;34397;51.176;6.738;2022-07-22T13:34:06;9.65;;;6.68;;
48550;SDS011;34397;51.176;6.738;2022-07-22T13:36:39;8.85;;;6.75;;
48550;SDS011;34397;51.176;6.738;2022-07-22T13:39:11;9.98;;;6.93;;
48550;SDS011;34397;51.176;6.738;2022-07-22T13:41:43;8.52;;;6.22;;
48550;SDS011;34397;51.176;6.738;2022-07-22T13:44:15;8.70;;;6.07;;
48550;SDS011;34397;51.176;6.738;2022-07-22T13:46:46;9.80;;;6.60;;
48550;SDS011;34397;51.176;6.738;2022-07-22T13:49:19;9.10;;;6.53;;
48550;SDS011;34397;51.176;6.738;2022-07-22T13:51:53;8.13;;;6.50;;
48550;SDS011;34397;51.176;6.738;2022-07-22T13:54:24;8.88;;;6.38;;
48550;SDS011;34397;51.176;6.738;2022-07-22T13:56:56;8.55;;;5.72;;
48550;SDS011;34397;51.176;6.738;2022-07-22T13:59:30;9.63;;;6.25;;
48550;SDS011;34397;51.176;6.738;2022-07-22T14:04:35;7.55;;;5.63;;
48550;SDS011;34397;51.176;6.738;2022-07-22T14:07:08;7.95;;;5.53;;
48550;SDS011;34397;51.176;6.738;2022-07-22T14:09:40;7.53;;;5.40;;
48550;SDS011;34397;51.176;6.738;2022-07-22T14:12:12;6.95;;;5.53;;
48550;SDS011;34397;51.176;6.738;2022-07-22T14:14:44;8.13;;;6.47;;
48550;SDS011;34397;51.176;6.738;2022-07-22T14:17:15;9.40;;;6.07;;
48550;SDS011;34397;51.176;6.738;2022-07-22T14:19:47;6.70;;;5.07;;
48550;SDS011;34397;51.176;6.738;2022-07-22T14:22:21;6.80;;;5.57;;
48550;SDS011;34397;51.176;6.738;2022-07-22T14:24:52;7.93;;;6.00;;
48550;SDS011;34397;51.176;6.738;2022-07-22T14:27:24;6.38;;;4.85;;
48550;SDS011;34397;51.176;6.738;2022-07-22T14:29:56;8.10;;;5.68;;
48550;SDS011;34397;51.176;6.738;2022-07-22T14:32:28;7.03;;;5.20;;
48550;SDS011;34397;51.176;6.738;2022-07-22T14:35:00;7.38;;;5.50;;
48550;SDS011;34397;51.176;6.738;2022-07-22T14:37:37;7.75;;;5.80;;
48550;SDS011;34397;51.176;6.738;2022-07-22T14:40:09;8.45;;;6.03;;
48550;SDS011;34397;51.176;6.738;2022-07-22T14:42:42;9.73;;;5.75;;
48550;SDS011;34397;51.176;6.738;2022-07-22T14:45:14;8.90;;;6.65;;
48550;SDS011;34397;51.176;6.738;2022-07-22T14:47:46;7.63;;;6.30;;
48550;SDS011;34397;51.176;6.738;2022-07-22T14:50:18;7.75;;;6.00;;
48550;SDS011;34397;51.176;6.738;2022-07-22T14:52:51;7.55;;;6.15;;
48550;SDS011;34397;51.176;6.738;2022-07-22T14:55:23;7.35;;;6.10;;
48550;SDS011;34397;51.176;6.738;2022-07-22T14:57:55;8.85;;;6.65;;
48550;SDS011;34397;51.176;6.738;2022-07-22T15:00:27;10.50;;;8.35;;
48550;SDS011;34397;51.176;6.738;2022-07-22T15:02:59;9.07;;;7.63;;
48550;SDS011;34397;51.176;6.738;2022-07-22T15:05:31;10.73;;;7.78;;
48550;SDS011;34397;51.176;6.738;2022-07-22T15:08:04;12.13;;;7.65;;
48550;SDS011;34397;51.176;6.738;2022-07-22T15:10:36;9.88;;;7.78;;
48550;SDS011;34397;51.176;6.738;2022-07-22T15:13:08;10.40;;;8.25;;
48550;SDS011;34397;51.176;6.738;2022-07-22T15:15:40;11.05;;;7.95;;
48550;SDS011;34397;51.176;6.738;2022-07-22T15:18:12;10.23;;;7.45;;
48550;SDS011;34397;51.176;6.738;2022-07-22T15:20:44;9.40;;;7.63;;
48550;SDS011;34397;51.176;6.738;2022-07-22T15:23:17;12.10;;;8.37;;
48550;SDS011;34397;51.176;6.738;2022-07-22T15:25:49;11.07;;;7.88;;
48550;SDS011;34397;51.176;6.738;2022-07-22T15:28:21;10.00;;;8.60;;